sensor_id;sensor_type;location;lat;lon;timestamp;pressure;altitude;pressure_sealevel;temperature;humidity
10097;BME280;5087;42.662;23.466;2023-11-18T00:00:50;94677.97;;;4.87;100.00
10097;BME280;5087;42.662;23.466;2023-11-18T00:03:20;94664.50;;;4.87;100.00
10097;BME280;5087;42.662;23.466;2023-11-18T00:05:51;94681.78;;;4.86;100.00
10097;BME280;5087;42.662;23.466;2023-11-18T00:08:23;94687.63;;;4.88;100.00
10097;BME280;5087;42.662;23.466;2023-11-18T00:10:53;94689.72;;;4.77;100.00
10097;BME280;5087;42.662;23.466;2023-11-18T00:13:24;94692.91;;;4.79;100.00
10097;BME280;5087;42.662;23.466;2023-11-18T00:15:55;94669.97;;;4.54;100.00
10097;BME280;5087;42.662;23.466;2023-11-18T00:18:23;94680.28;;;4.47;100.00
10097;BME280;5087;42.662;23.466;2023-11-18T00:20:55;94685.75;;;4.41;100.00
10097;BME280;5087;42.662;23.466;2023-11-18T00:23:30;94694.16;;;4.54;100.00
10097;BME280;5087;42.662;23.466;2023-11-18T00:25:57;94711.78;;;4.60;100.00
10097;BME280;5087;42.662;23.466;2023-11-18T00:28:24;94620.84;;;4.01;100.00
10097;BME280;5087;42.662;23.466;2023-11-18T00:30:58;94674.66;;;4.29;100.00
10097;BME280;5087;42.662;23.466;2023-11-18T00:33:27;94668.53;;;4.42;100.00
10097;BME280;5087;42.662;23.466;2023-11-18T00:35:54;94672.50;;;4.45;100.00
10097;BME280;5087;42.662;23.466;2023-11-18T00:38:24;94673.66;;;4.25;100.00
10097;BME280;5087;42.662;23.466;2023-11-18T00:41:02;94645.44;;;4.08;100.00
10097;BME280;5087;42.662;23.466;2023-11-18T00:43:30;94681.84;;;4.34;100.00
10097;BME280;5087;42.662;23.466;2023-11-18T00:45:58;94678.44;;;4.28;100.00
10097;BME280;5087;42.662;23.466;2023-11-18T00:48:27;94686.59;;;4.23;100.00
10097;BME280;5087;42.662;23.466;2023-11-18T00:50:59;94689.63;;;4.16;100.00
10097;BME280;5087;42.662;23.466;2023-11-18T00:53:29;94689.06;;;4.19;100.00
10097;BME280;5087;42.662;23.466;2023-11-18T00:56:14;94680.63;;;4.26;100.00
10097;BME280;5087;42.662;23.466;2023-11-18T00:58:43;94698.31;;;4.13;100.00
10097;BME280;5087;42.662;23.466;2023-11-18T01:01:11;94684.47;;;4.20;100.00
10097;BME280;5087;42.662;23.466;2023-11-18T01:03:38;94648.28;;;3.98;100.00
10097;BME280;5087;42.662;23.466;2023-11-18T01:06:05;94698.13;;;4.23;100.00
10097;BME280;5087;42.662;23.466;2023-11-18T01:08:32;94698.63;;;4.25;100.00
10097;BME280;5087;42.662;23.466;2023-11-18T01:10:59;94693.13;;;4.17;100.00
10097;BME280;5087;42.662;23.466;2023-11-18T01:13:34;94698.88;;;4.10;100.00
10097;BME280;5087;42.662;23.466;2023-11-18T01:16:08;94679.72;;;3.98;100.00
10097;BME280;5087;42.662;23.466;2023-11-18T01:18:37;94696.47;;;4.08;100.00
10097;BME280;5087;42.662;23.466;2023-11-18T01:21:05;94721.75;;;4.07;100.00
10097;BME280;5087;42.662;23.466;2023-11-18T01:23:34;94691.59;;;3.91;100.00
10097;BME280;5087;42.662;23.466;2023-11-18T01:26:05;94686.84;;;3.88;100.00
10097;BME280;5087;42.662;23.466;2023-11-18T01:28:35;94712.81;;;4.12;100.00
10097;BME280;5087;42.662;23.466;2023-11-18T01:31:08;94722.19;;;4.15;100.00
10097;BME280;5087;42.662;23.466;2023-11-18T01:33:36;94717.97;;;4.08;100.00
10097;BME280;5087;42.662;23.466;2023-11-18T01:36:11;94705.63;;;4.07;100.00
10097;BME280;5087;42.662;23.466;2023-11-18T01:38:38;94691.03;;;3.94;100.00
10097;BME280;5087;42.662;23.466;2023-11-18T01:41:08;94642.06;;;3.64;100.00
10097;BME280;5087;42.662;23.466;2023-11-18T01:43:40;94725.81;;;4.05;100.00
10097;BME280;5087;42.662;23.466;2023-11-18T01:46:09;94713.16;;;4.05;100.00
10097;BME280;5087;42.662;23.466;2023-11-18T01:48:43;94668.63;;;3.85;100.00
10097;BME280;5087;42.662;23.466;2023-11-18T01:51:12;94691.69;;;3.86;100.00
10097;BME280;5087;42.662;23.466;2023-11-18T01:53:42;94703.16;;;3.92;100.00
10097;BME280;5087;42.662;23.466;2023-11-18T01:56:11;94715.06;;;3.86;100.00
10097;BME280;5087;42.662;23.466;2023-11-18T01:58:41;94700.56;;;3.87;100.00
10097;BME280;5087;42.662;23.466;2023-11-18T02:01:12;94663.69;;;3.54;100.00
10097;BME280;5087;42.662;23.466;2023-11-18T02:03:51;94712.66;;;3.65;100.00
10097;BME280;5087;42.662;23.466;2023-11-18T02:06:19;94715.31;;;3.65;100.00
10097;BME280;5087;42.662;23.466;2023-11-18T02:08:47;94707.28;;;3.65;100.00
10097;BME280;5087;42.662;23.466;2023-11-18T02:11:29;94707.69;;;3.53;100.00
10097;BME280;5087;42.662;23.466;2023-11-18T02:14:14;94686.19;;;3.34;100.00
10097;BME280;5087;42.662;23.466;2023-11-18T02:16:50;94677.59;;;3.37;100.00
10097;BME280;5087;42.662;23.466;2023-11-18T02:19:21;94671.66;;;3.16;100.00
10097;BME280;5087;42.662;23.466;2023-11-18T02:21:54;94709.78;;;3.37;100.00
10097;BME280;5087;42.662;23.466;2023-11-18T02:24:32;94707.72;;;3.29;100.00
10097;BME280;5087;42.662;23.466;2023-11-18T02:27:05;94719.50;;;3.33;100.00
10097;BME280;5087;42.662;23.466;2023-11-18T02:29:34;94730.78;;;3.30;100.00
10097;BME280;5087;42.662;23.466;2023-11-18T02:32:11;94722.69;;;3.35;100.00
10097;BME280;5087;42.662;23.466;2023-11-18T02:34:50;94710.59;;;3.13;100.00
10097;BME280;5087;42.662;23.466;2023-11-18T02:37:20;94722.81;;;3.25;100.00
10097;BME280;5087;42.662;23.466;2023-11-18T02:39:53;94723.84;;;3.29;100.00
10097;BME280;5087;42.662;23.466;2023-11-18T02:42:28;94718.81;;;3.22;100.00
10097;BME280;5087;42.662;23.466;2023-11-18T02:44:58;94732.44;;;3.26;100.00
10097;BME280;5087;42.662;23.466;2023-11-18T02:47:26;94695.19;;;3.00;100.00
10097;BME280;5087;42.662;23.466;2023-11-18T02:49:54;94743.00;;;3.17;100.00
10097;BME280;5087;42.662;23.466;2023-11-18T02:52:28;94728.84;;;3.11;100.00
10097;BME280;5087;42.662;23.466;2023-11-18T02:55:08;94723.88;;;2.99;100.00
10097;BME280;5087;42.662;23.466;2023-11-18T02:57:38;94736.97;;;3.06;100.00
10097;BME280;5087;42.662;23.466;2023-11-18T03:00:06;94712.75;;;2.87;100.00
10097;BME280;5087;42.662;23.466;2023-11-18T03:02:37;94747.22;;;2.99;100.00
10097;BME280;5087;42.662;23.466;2023-11-18T03:05:06;94744.38;;;2.90;100.00
10097;BME280;5087;42.662;23.466;2023-11-18T03:07:43;94747.91;;;2.85;100.00
10097;BME280;5087;42.662;23.466;2023-11-18T03:10:14;94723.47;;;2.58;100.00
10097;BME280;5087;42.662;23.466;2023-11-18T03:13:03;94765.66;;;2.76;100.00
10097;BME280;5087;42.662;23.466;2023-11-18T03:15:30;94759.78;;;2.74;100.00
10097;BME280;5087;42.662;23.466;2023-11-18T03:17:57;94765.19;;;2.69;100.00
10097;BME280;5087;42.662;23.466;2023-11-18T03:20:25;94765.50;;;2.62;100.00
10097;BME280;5087;42.662;23.466;2023-11-18T03:22:59;94750.09;;;2.49;100.00
10097;BME280;5087;42.662;23.466;2023-11-18T03:25:28;94735.25;;;2.27;100.00
10097;BME280;5087;42.662;23.466;2023-11-18T03:28:00;94783.78;;;2.60;100.00
10097;BME280;5087;42.662;23.466;2023-11-18T03:30:32;94754.06;;;2.57;100.00
10097;BME280;5087;42.662;23.466;2023-11-18T03:33:04;94754.66;;;2.48;100.00
10097;BME280;5087;42.662;23.466;2023-11-18T03:35:31;94767.44;;;2.57;100.00
10097;BME280;5087;42.662;23.466;2023-11-18T03:38:02;94790.47;;;2.58;100.00
10097;BME280;5087;42.662;23.466;2023-11-18T03:40:32;94744.06;;;2.28;100.00
10097;BME280;5087;42.662;23.466;2023-11-18T03:43:02;94784.88;;;2.54;100.00
10097;BME280;5087;42.662;23.466;2023-11-18T03:45:38;94779.03;;;2.47;100.00
10097;BME280;5087;42.662;23.466;2023-11-18T03:48:06;94784.22;;;2.33;100.00
10097;BME280;5087;42.662;23.466;2023-11-18T03:50:33;94771.63;;;2.33;100.00
10097;BME280;5087;42.662;23.466;2023-11-18T03:53:04;94760.47;;;2.21;100.00
10097;BME280;5087;42.662;23.466;2023-11-18T03:55:32;94740.25;;;1.99;100.00
10097;BME280;5087;42.662;23.466;2023-11-18T03:58:04;94768.78;;;2.19;100.00
10097;BME280;5087;42.662;23.466;2023-11-18T04:00:35;94756.78;;;2.12;100.00
10097;BME280;5087;42.662;23.466;2023-11-18T04:03:08;94731.47;;;1.88;100.00
10097;BME280;5087;42.662;23.466;2023-11-18T04:05:42;94685.91;;;1.59;100.00
10097;BME280;5087;42.662;23.466;2023-11-18T04:08:09;94751.25;;;1.98;100.00
10097;BME280;5087;42.662;23.466;2023-11-18T04:10:38;94743.78;;;1.89;100.00
10097;BME280;5087;42.662;23.466;2023-11-18T04:13:11;94778.00;;;2.03;100.00
10097;BME280;5087;42.662;23.466;2023-11-18T04:15:38;94771.03;;;2.02;100.00
10097;BME280;5087;42.662;23.466;2023-11-18T04:18:08;94744.31;;;1.92;100.00
10097;BME280;5087;42.662;23.466;2023-11-18T04:20:38;94787.06;;;2.07;100.00
10097;BME280;5087;42.662;23.466;2023-11-18T04:23:08;94764.72;;;1.87;100.00
10097;BME280;5087;42.662;23.466;2023-11-18T04:25:43;94775.63;;;1.96;100.00
10097;BME280;5087;42.662;23.466;2023-11-18T04:28:12;94750.22;;;1.88;100.00
10097;BME280;5087;42.662;23.466;2023-11-18T04:30:39;94750.22;;;1.94;100.00
10097;BME280;5087;42.662;23.466;2023-11-18T04:33:09;94752.97;;;1.78;100.00
10097;BME280;5087;42.662;23.466;2023-11-18T04:35:45;94789.78;;;2.02;100.00
10097;BME280;5087;42.662;23.466;2023-11-18T04:38:16;94799.91;;;2.10;100.00
10097;BME280;5087;42.662;23.466;2023-11-18T04:40:46;94799.91;;;2.05;100.00
10097;BME280;5087;42.662;23.466;2023-11-18T04:43:15;94798.06;;;2.05;100.00
10097;BME280;5087;42.662;23.466;2023-11-18T04:45:45;94775.91;;;1.89;100.00
10097;BME280;5087;42.662;23.466;2023-11-18T04:48:12;94797.28;;;2.00;100.00
10097;BME280;5087;42.662;23.466;2023-11-18T04:50:43;94734.00;;;1.69;100.00
10097;BME280;5087;42.662;23.466;2023-11-18T04:53:14;94782.34;;;1.94;100.00
10097;BME280;5087;42.662;23.466;2023-11-18T04:55:44;94772.22;;;1.80;100.00
10097;BME280;5087;42.662;23.466;2023-11-18T04:58:22;94785.25;;;1.92;100.00
10097;BME280;5087;42.662;23.466;2023-11-18T05:00:49;94785.59;;;1.85;100.00
10097;BME280;5087;42.662;23.466;2023-11-18T05:03:17;94780.72;;;1.93;100.00
10097;BME280;5087;42.662;23.466;2023-11-18T05:05:47;94762.06;;;1.77;100.00
10097;BME280;5087;42.662;23.466;2023-11-18T05:08:19;94775.41;;;1.87;100.00
10097;BME280;5087;42.662;23.466;2023-11-18T05:10:47;94782.41;;;1.73;100.00
10097;BME280;5087;42.662;23.466;2023-11-18T05:13:19;94784.06;;;1.69;100.00
10097;BME280;5087;42.662;23.466;2023-11-18T05:15:50;94787.75;;;1.78;100.00
10097;BME280;5087;42.662;23.466;2023-11-18T05:18:23;94759.47;;;1.62;100.00
10097;BME280;5087;42.662;23.466;2023-11-18T05:20:55;94779.78;;;1.68;100.00
10097;BME280;5087;42.662;23.466;2023-11-18T05:23:23;94760.06;;;1.43;100.00
10097;BME280;5087;42.662;23.466;2023-11-18T05:25:53;94768.03;;;1.58;100.00
10097;BME280;5087;42.662;23.466;2023-11-18T05:28:23;94786.97;;;1.72;100.00
10097;BME280;5087;42.662;23.466;2023-11-18T05:30:58;94784.84;;;1.69;100.00
10097;BME280;5087;42.662;23.466;2023-11-18T05:33:28;94785.41;;;1.66;100.00
10097;BME280;5087;42.662;23.466;2023-11-18T05:35:55;94766.97;;;1.60;100.00
10097;BME280;5087;42.662;23.466;2023-11-18T05:38:26;94787.81;;;1.68;100.00
10097;BME280;5087;42.662;23.466;2023-11-18T05:40:57;94755.22;;;1.50;100.00
10097;BME280;5087;42.662;23.466;2023-11-18T05:43:29;94777.63;;;1.70;100.00
10097;BME280;5087;42.662;23.466;2023-11-18T05:46:03;94777.13;;;1.63;100.00
10097;BME280;5087;42.662;23.466;2023-11-18T05:49:12;94794.72;;;1.79;100.00
10097;BME280;5087;42.662;23.466;2023-11-18T05:51:40;94803.53;;;1.80;100.00
10097;BME280;5087;42.662;23.466;2023-11-18T05:54:07;94789.69;;;1.67;100.00
10097;BME280;5087;42.662;23.466;2023-11-18T05:56:36;94706.13;;;1.31;100.00
10097;BME280;5087;42.662;23.466;2023-11-18T05:59:05;94805.44;;;1.74;100.00
10097;BME280;5087;42.662;23.466;2023-11-18T06:01:33;94757.72;;;1.36;100.00
10097;BME280;5087;42.662;23.466;2023-11-18T06:04:03;94810.28;;;1.72;100.00
10097;BME280;5087;42.662;23.466;2023-11-18T06:06:33;94831.94;;;1.76;100.00
10097;BME280;5087;42.662;23.466;2023-11-18T06:09:03;94812.41;;;1.70;100.00
10097;BME280;5087;42.662;23.466;2023-11-18T06:11:38;94818.81;;;1.79;100.00
10097;BME280;5087;42.662;23.466;2023-11-18T06:14:11;94811.91;;;1.63;100.00
10097;BME280;5087;42.662;23.466;2023-11-18T06:16:38;94819.38;;;1.66;100.00
10097;BME280;5087;42.662;23.466;2023-11-18T06:19:06;94812.47;;;1.54;100.00
10097;BME280;5087;42.662;23.466;2023-11-18T06:21:33;94825.53;;;1.61;100.00
10097;BME280;5087;42.662;23.466;2023-11-18T06:24:03;94844.78;;;1.73;100.00
10097;BME280;5087;42.662;23.466;2023-11-18T06:26:31;94841.31;;;1.68;100.00
10097;BME280;5087;42.662;23.466;2023-11-18T06:29:04;94851.22;;;1.62;100.00
10097;BME280;5087;42.662;23.466;2023-11-18T06:31:33;94845.34;;;1.65;100.00
10097;BME280;5087;42.662;23.466;2023-11-18T06:34:06;94801.28;;;1.47;100.00
10097;BME280;5087;42.662;23.466;2023-11-18T06:36:33;94850.44;;;1.62;100.00
10097;BME280;5087;42.662;23.466;2023-11-18T06:39:04;94829.31;;;1.60;100.00
10097;BME280;5087;42.662;23.466;2023-11-18T06:41:37;94839.22;;;1.65;100.00
10097;BME280;5087;42.662;23.466;2023-11-18T06:44:13;94836.50;;;1.70;100.00
10097;BME280;5087;42.662;23.466;2023-11-18T06:46:47;94817.81;;;1.54;100.00
10097;BME280;5087;42.662;23.466;2023-11-18T06:49:16;94850.97;;;1.64;100.00
10097;BME280;5087;42.662;23.466;2023-11-18T06:51:44;94830.91;;;1.56;100.00
10097;BME280;5087;42.662;23.466;2023-11-18T06:54:27;94794.34;;;1.41;100.00
10097;BME280;5087;42.662;23.466;2023-11-18T06:56:54;94800.22;;;1.38;100.00
10097;BME280;5087;42.662;23.466;2023-11-18T06:59:25;94802.63;;;1.34;100.00
10097;BME280;5087;42.662;23.466;2023-11-18T07:01:53;94828.00;;;1.47;100.00
10097;BME280;5087;42.662;23.466;2023-11-18T07:04:21;94834.38;;;1.72;100.00
10097;BME280;5087;42.662;23.466;2023-11-18T07:06:49;94785.25;;;1.26;100.00
10097;BME280;5087;42.662;23.466;2023-11-18T07:09:19;94849.06;;;1.74;100.00
10097;BME280;5087;42.662;23.466;2023-11-18T07:11:47;94853.59;;;1.79;100.00
10097;BME280;5087;42.662;23.466;2023-11-18T07:14:18;94836.78;;;1.63;100.00
10097;BME280;5087;42.662;23.466;2023-11-18T07:16:46;94861.63;;;1.79;100.00
10097;BME280;5087;42.662;23.466;2023-11-18T07:19:21;94805.53;;;1.43;100.00
10097;BME280;5087;42.662;23.466;2023-11-18T07:21:49;94834.91;;;1.58;100.00
10097;BME280;5087;42.662;23.466;2023-11-18T07:24:20;94856.34;;;1.53;100.00
10097;BME280;5087;42.662;23.466;2023-11-18T07:26:47;94867.00;;;1.69;100.00
10097;BME280;5087;42.662;23.466;2023-11-18T07:29:17;94805.34;;;1.29;100.00
10097;BME280;5087;42.662;23.466;2023-11-18T07:31:49;94821.06;;;1.46;100.00
10097;BME280;5087;42.662;23.466;2023-11-18T07:34:27;94885.44;;;1.81;100.00
10097;BME280;5087;42.662;23.466;2023-11-18T07:36:54;94862.19;;;1.71;100.00
10097;BME280;5087;42.662;23.466;2023-11-18T07:39:23;94871.22;;;1.85;100.00
10097;BME280;5087;42.662;23.466;2023-11-18T07:42:10;94839.22;;;1.65;100.00
10097;BME280;5087;42.662;23.466;2023-11-18T07:44:37;94877.13;;;1.87;100.00
10097;BME280;5087;42.662;23.466;2023-11-18T07:47:05;94834.88;;;1.79;100.00
10097;BME280;5087;42.662;23.466;2023-11-18T07:49:35;94812.16;;;1.61;100.00
10097;BME280;5087;42.662;23.466;2023-11-18T07:52:05;94836.97;;;1.87;100.00
10097;BME280;5087;42.662;23.466;2023-11-18T07:54:34;94808.69;;;1.61;100.00
10097;BME280;5087;42.662;23.466;2023-11-18T07:57:04;94834.03;;;1.79;100.00
10097;BME280;5087;42.662;23.466;2023-11-18T07:59:38;94811.34;;;1.71;100.00
10097;BME280;5087;42.662;23.466;2023-11-18T08:02:08;94807.34;;;1.68;100.00
10097;BME280;5087;42.662;23.466;2023-11-18T08:04:38;94777.94;;;1.58;100.00
10097;BME280;5087;42.662;23.466;2023-11-18T08:07:06;94875.72;;;2.05;100.00
10097;BME280;5087;42.662;23.466;2023-11-18T08:09:39;94878.38;;;2.00;100.00
10097;BME280;5087;42.662;23.466;2023-11-18T08:12:08;94806.53;;;1.68;100.00
10097;BME280;5087;42.662;23.466;2023-11-18T08:14:35;94845.03;;;1.77;100.00
10097;BME280;5087;42.662;23.466;2023-11-18T08:17:03;94810.34;;;1.51;100.00
10097;BME280;5087;42.662;23.466;2023-11-18T08:19:31;94805.03;;;1.41;100.00
10097;BME280;5087;42.662;23.466;2023-11-18T08:22:04;94837.59;;;1.64;100.00
10097;BME280;5087;42.662;23.466;2023-11-18T08:24:31;94842.94;;;1.64;100.00
10097;BME280;5087;42.662;23.466;2023-11-18T08:27:05;94832.25;;;1.64;100.00
10097;BME280;5087;42.662;23.466;2023-11-18T08:29:35;94839.75;;;1.62;100.00
10097;BME280;5087;42.662;23.466;2023-11-18T08:32:07;94880.06;;;1.91;100.00
10097;BME280;5087;42.662;23.466;2023-11-18T08:34:35;94831.38;;;1.79;100.00
10097;BME280;5087;42.662;23.466;2023-11-18T08:37:07;94816.63;;;1.81;100.00
10097;BME280;5087;42.662;23.466;2023-11-18T08:39:35;94826.34;;;1.72;100.00
10097;BME280;5087;42.662;23.466;2023-11-18T08:42:06;94781.72;;;1.52;100.00
10097;BME280;5087;42.662;23.466;2023-11-18T08:44:39;94819.31;;;1.81;100.00
10097;BME280;5087;42.662;23.466;2023-11-18T08:47:06;94852.50;;;1.85;100.00
10097;BME280;5087;42.662;23.466;2023-11-18T08:49:37;94881.63;;;1.97;100.00
10097;BME280;5087;42.662;23.466;2023-11-18T08:52:08;94848.75;;;1.81;100.00
10097;BME280;5087;42.662;23.466;2023-11-18T08:54:38;94844.47;;;1.85;100.00
10097;BME280;5087;42.662;23.466;2023-11-18T08:57:26;94857.84;;;1.80;100.00
10097;BME280;5087;42.662;23.466;2023-11-18T09:00:07;94829.25;;;1.76;100.00
10097;BME280;5087;42.662;23.466;2023-11-18T09:02:54;94830.03;;;1.81;100.00
10097;BME280;5087;42.662;23.466;2023-11-18T09:05:21;94835.97;;;1.68;100.00
10097;BME280;5087;42.662;23.466;2023-11-18T09:07:49;94842.31;;;1.82;100.00
10097;BME280;5087;42.662;23.466;2023-11-18T09:10:19;94779.31;;;1.50;100.00
10097;BME280;5087;42.662;23.466;2023-11-18T09:12:47;94848.25;;;1.79;100.00
10097;BME280;5087;42.662;23.466;2023-11-18T09:15:14;94877.34;;;1.96;100.00
10097;BME280;5087;42.662;23.466;2023-11-18T09:17:48;94877.06;;;1.98;100.00
10097;BME280;5087;42.662;23.466;2023-11-18T09:20:15;94847.16;;;1.80;100.00
10097;BME280;5087;42.662;23.466;2023-11-18T09:22:46;94854.16;;;1.71;100.00
10097;BME280;5087;42.662;23.466;2023-11-18T09:25:16;94881.34;;;1.99;100.00
10097;BME280;5087;42.662;23.466;2023-11-18T09:27:50;94875.47;;;2.02;100.00
10097;BME280;5087;42.662;23.466;2023-11-18T09:30:17;94877.13;;;1.82;100.00
10097;BME280;5087;42.662;23.466;2023-11-18T09:32:45;94874.97;;;1.84;100.00
10097;BME280;5087;42.662;23.466;2023-11-18T09:35:16;94783.13;;;1.34;100.00
10097;BME280;5087;42.662;23.466;2023-11-18T09:37:45;94844.00;;;1.68;100.00
10097;BME280;5087;42.662;23.466;2023-11-18T09:40:17;94789.19;;;1.60;100.00
10097;BME280;5087;42.662;23.466;2023-11-18T09:42:49;94859.72;;;1.85;100.00
10097;BME280;5087;42.662;23.466;2023-11-18T09:45:16;94856.78;;;1.81;100.00
10097;BME280;5087;42.662;23.466;2023-11-18T09:47:46;94881.34;;;1.99;100.00
10097;BME280;5087;42.662;23.466;2023-11-18T09:50:17;94865.03;;;1.95;100.00
10097;BME280;5087;42.662;23.466;2023-11-18T09:52:54;94851.69;;;1.90;100.00
10097;BME280;5087;42.662;23.466;2023-11-18T09:55:32;94844.22;;;1.82;100.00
10097;BME280;5087;42.662;23.466;2023-11-18T09:58:04;94873.34;;;1.94;100.00
10097;BME280;5087;42.662;23.466;2023-11-18T10:00:39;94874.63;;;2.01;100.00
10097;BME280;5087;42.662;23.466;2023-11-18T10:03:08;94869.31;;;1.96;100.00
10097;BME280;5087;42.662;23.466;2023-11-18T10:05:44;94864.53;;;1.88;100.00
10097;BME280;5087;42.662;23.466;2023-11-18T10:08:21;94846.63;;;1.78;100.00
10097;BME280;5087;42.662;23.466;2023-11-18T10:10:54;94844.97;;;1.93;100.00
10097;BME280;5087;42.662;23.466;2023-11-18T10:13:31;94843.13;;;1.88;100.00
10097;BME280;5087;42.662;23.466;2023-11-18T10:16:01;94847.38;;;1.94;100.00
10097;BME280;5087;42.662;23.466;2023-11-18T10:18:31;94863.75;;;1.87;100.00
10097;BME280;5087;42.662;23.466;2023-11-18T10:21:00;94840.97;;;1.85;100.00
10097;BME280;5087;42.662;23.466;2023-11-18T10:23:30;94857.03;;;1.90;100.00
10097;BME280;5087;42.662;23.466;2023-11-18T10:26:00;94847.06;;;2.01;100.00
10097;BME280;5087;42.662;23.466;2023-11-18T10:28:30;94856.72;;;1.97;100.00
10097;BME280;5087;42.662;23.466;2023-11-18T10:30:59;94858.84;;;2.00;100.00
10097;BME280;5087;42.662;23.466;2023-11-18T10:33:29;94840.16;;;1.89;100.00
10097;BME280;5087;42.662;23.466;2023-11-18T10:35:58;94851.88;;;2.04;100.00
10097;BME280;5087;42.662;23.466;2023-11-18T10:38:29;94840.41;;;1.93;100.00
10097;BME280;5087;42.662;23.466;2023-11-18T10:40:59;94831.88;;;1.91;100.00
10097;BME280;5087;42.662;23.466;2023-11-18T10:43:31;94848.78;;;1.76;100.00
10097;BME280;5087;42.662;23.466;2023-11-18T10:46:05;94859.97;;;1.94;100.00
10097;BME280;5087;42.662;23.466;2023-11-18T10:48:39;94832.66;;;1.92;100.00
10097;BME280;5087;42.662;23.466;2023-11-18T10:51:09;94803.56;;;1.69;100.00
10097;BME280;5087;42.662;23.466;2023-11-18T10:53:40;94822.06;;;1.71;100.00
10097;BME280;5087;42.662;23.466;2023-11-18T10:56:20;94874.38;;;2.03;100.00
10097;BME280;5087;42.662;23.466;2023-11-18T10:58:52;94838.81;;;1.92;100.00
10097;BME280;5087;42.662;23.466;2023-11-18T11:01:29;94858.81;;;2.05;100.00
10097;BME280;5087;42.662;23.466;2023-11-18T11:03:58;94819.88;;;1.78;100.00
10097;BME280;5087;42.662;23.466;2023-11-18T11:06:26;94853.03;;;1.82;100.00
10097;BME280;5087;42.662;23.466;2023-11-18T11:08:57;94832.19;;;1.74;100.00
10097;BME280;5087;42.662;23.466;2023-11-18T11:11:33;94862.81;;;2.08;100.00
10097;BME280;5087;42.662;23.466;2023-11-18T11:14:04;94863.16;;;1.96;100.00
10097;BME280;5087;42.662;23.466;2023-11-18T11:16:40;94860.44;;;2.06;100.00
10097;BME280;5087;42.662;23.466;2023-11-18T11:19:15;94852.97;;;1.98;100.00
10097;BME280;5087;42.662;23.466;2023-11-18T11:22:00;94821.66;;;1.98;100.00
10097;BME280;5087;42.662;23.466;2023-11-18T11:24:45;94834.81;;;1.89;100.00
10097;BME280;5087;42.662;23.466;2023-11-18T11:27:22;94839.66;;;1.82;100.00
10097;BME280;5087;42.662;23.466;2023-11-18T11:29:59;94846.81;;;1.97;100.00
10097;BME280;5087;42.662;23.466;2023-11-18T11:32:39;94814.50;;;1.83;100.00
10097;BME280;5087;42.662;23.466;2023-11-18T11:35:16;94850.56;;;1.96;100.00
10097;BME280;5087;42.662;23.466;2023-11-18T11:37:47;94820.34;;;1.90;100.00
10097;BME280;5087;42.662;23.466;2023-11-18T11:40:16;94849.19;;;2.09;100.00
10097;BME280;5087;42.662;23.466;2023-11-18T11:42:50;94806.44;;;1.94;100.00
10097;BME280;5087;42.662;23.466;2023-11-18T11:45:22;94775.41;;;1.87;100.00
10097;BME280;5087;42.662;23.466;2023-11-18T11:47:55;94834.72;;;2.05;100.00
10097;BME280;5087;42.662;23.466;2023-11-18T11:50:48;94835.50;;;2.11;100.00
10097;BME280;5087;42.662;23.466;2023-11-18T11:53:26;94804.59;;;1.84;100.00
10097;BME280;5087;42.662;23.466;2023-11-18T11:55:55;94842.25;;;1.98;100.00
10097;BME280;5087;42.662;23.466;2023-11-18T11:58:33;94757.34;;;1.64;100.00
10097;BME280;5087;42.662;23.466;2023-11-18T12:01:25;94816.03;;;2.00;100.00
10097;BME280;5087;42.662;23.466;2023-11-18T12:03:58;94809.03;;;2.04;100.00
10097;BME280;5087;42.662;23.466;2023-11-18T12:06:33;94866.78;;;2.20;100.00
10097;BME280;5087;42.662;23.466;2023-11-18T12:09:03;94839.28;;;2.04;100.00
10097;BME280;5087;42.662;23.466;2023-11-18T12:11:35;94870.25;;;2.26;100.00
10097;BME280;5087;42.662;23.466;2023-11-18T12:14:07;94866.50;;;2.27;100.00
10097;BME280;5087;42.662;23.466;2023-11-18T12:17:03;94841.06;;;2.25;100.00
10097;BME280;5087;42.662;23.466;2023-11-18T12:19:36;94861.44;;;2.20;100.00
10097;BME280;5087;42.662;23.466;2023-11-18T12:22:11;94843.47;;;2.26;100.00
10097;BME280;5087;42.662;23.466;2023-11-18T12:24:46;94818.16;;;2.03;100.00
10097;BME280;5087;42.662;23.466;2023-11-18T12:27:42;94833.09;;;2.14;100.00
10097;BME280;5087;42.662;23.466;2023-11-18T12:30:40;94845.84;;;2.28;100.00
10097;BME280;5087;42.662;23.466;2023-11-18T12:33:20;94829.25;;;2.31;100.00
10097;BME280;5087;42.662;23.466;2023-11-18T12:42:12;94812.72;;;2.13;100.00
10097;BME280;5087;42.662;23.466;2023-11-18T12:45:26;94831.38;;;2.29;100.00
10097;BME280;5087;42.662;23.466;2023-11-18T12:48:05;94846.34;;;2.35;100.00
10097;BME280;5087;42.662;23.466;2023-11-18T12:50:38;94838.38;;;2.25;100.00
10097;BME280;5087;42.662;23.466;2023-11-18T12:53:07;94847.41;;;2.34;100.00
10097;BME280;5087;42.662;23.466;2023-11-18T12:55:34;94869.38;;;2.36;100.00
10097;BME280;5087;42.662;23.466;2023-11-18T12:58:04;94837.97;;;2.02;100.00
10097;BME280;5087;42.662;23.466;2023-11-18T13:00:31;94850.25;;;2.08;100.00
10097;BME280;5087;42.662;23.466;2023-11-18T13:03:03;94757.00;;;1.76;100.00
10097;BME280;5087;42.662;23.466;2023-11-18T13:05:38;94819.69;;;2.14;100.00
10097;BME280;5087;42.662;23.466;2023-11-18T13:08:11;94782.25;;;2.04;100.00
10097;BME280;5087;42.662;23.466;2023-11-18T13:10:41;94829.88;;;2.12;100.00
10097;BME280;5087;42.662;23.466;2023-11-18T13:13:16;94834.97;;;2.14;100.00
10097;BME280;5087;42.662;23.466;2023-11-18T13:15:46;94848.13;;;2.10;100.00
10097;BME280;5087;42.662;23.466;2023-11-18T13:18:27;94817.81;;;2.15;100.00
10097;BME280;5087;42.662;23.466;2023-11-18T13:20:58;94864.94;;;2.16;100.00
10097;BME280;5087;42.662;23.466;2023-11-18T13:23:34;94845.50;;;1.95;100.00
10097;BME280;5087;42.662;23.466;2023-11-18T13:26:03;94887.72;;;2.13;100.00
10097;BME280;5087;42.662;23.466;2023-11-18T13:28:32;94880.50;;;2.14;100.00
10097;BME280;5087;42.662;23.466;2023-11-18T13:31:07;94866.38;;;1.93;100.00